Berkeley, New Jersey
Current Conditions -  °F | °C
As of 2:35 PM on Thursday 23 Oct 2014 (Local Time) from KMJX Reporting Station
Overcast Overcast  
Wind Chill: 52°   Ceiling: 1900
Heat Index: 52°   Visibility: 10mi
Dew Point: 48°   Wind: 8mph
Humidity: 88%   Direction: 310°NW
Pressure: 29.71"   Gusts: NA
Location:  39.9559°N, 74.2574°W
Report Text: KMJX 231835Z AUTO 31007KT 10SM FEW013 BKN019 OVC025 11/09 A2971 RMK AO1
Loading
Personal Weather Stations






























Interactive Weather Map
Tropical Storm Tracking
New forecast layout! Learn more

10-Day Weather Forecast

Advertisements
Track Severe Weather on mobile